sensor_id;sensor_type;location;lat;lon;timestamp;pressure;altitude;pressure_sealevel;temperature
65290;BMP180;51893;59.754;10.110;2024-03-23T00:54:18;99542.80;;;3.00
65290;BMP180;51893;59.754;10.110;2024-03-23T00:56:45;99531.40;;;3.00
65290;BMP180;51893;59.754;10.110;2024-03-23T00:59:11;99532.00;;;3.00
65290;BMP180;51893;59.754;10.110;2024-03-23T01:01:38;99534.20;;;2.90
65290;BMP180;51893;59.754;10.110;2024-03-23T01:04:05;99537.00;;;2.90
65290;BMP180;51893;59.754;10.110;2024-03-23T01:06:32;99537.00;;;2.90
65290;BMP180;51893;59.754;10.110;2024-03-23T01:08:58;99531.40;;;2.90
65290;BMP180;51893;59.754;10.110;2024-03-23T01:11:28;99524.00;;;2.98
65290;BMP180;51893;59.754;10.110;2024-03-23T01:13:55;99518.00;;;3.00
65290;BMP180;51893;59.754;10.110;2024-03-23T01:16:24;99516.80;;;2.92
65290;BMP180;51893;59.754;10.110;2024-03-23T01:18:50;99511.60;;;2.90
65290;BMP180;51893;59.754;10.110;2024-03-23T01:21:17;99512.20;;;2.80
65290;BMP180;51893;59.754;10.110;2024-03-23T01:23:46;99507.40;;;2.78
65290;BMP180;51893;59.754;10.110;2024-03-23T01:26:13;99501.00;;;2.80
65290;BMP180;51893;59.754;10.110;2024-03-23T01:28:39;99497.80;;;2.78
65290;BMP180;51893;59.754;10.110;2024-03-23T01:31:06;99493.40;;;2.80
65290;BMP180;51893;59.754;10.110;2024-03-23T01:33:33;99486.40;;;2.86
65290;BMP180;51893;59.754;10.110;2024-03-23T01:36:00;99484.60;;;2.90
65290;BMP180;51893;59.754;10.110;2024-03-23T01:38:26;99484.80;;;2.90
65290;BMP180;51893;59.754;10.110;2024-03-23T01:40:57;99476.60;;;2.90
65290;BMP180;51893;59.754;10.110;2024-03-23T01:43:26;99479.60;;;2.90
65290;BMP180;51893;59.754;10.110;2024-03-23T01:45:53;99484.80;;;2.80
65290;BMP180;51893;59.754;10.110;2024-03-23T01:48:21;99485.00;;;2.80
65290;BMP180;51893;59.754;10.110;2024-03-23T01:50:48;99477.80;;;2.80
65290;BMP180;51893;59.754;10.110;2024-03-23T01:53:15;99469.60;;;2.80
65290;BMP180;51893;59.754;10.110;2024-03-23T01:55:45;99467.00;;;2.80
65290;BMP180;51893;59.754;10.110;2024-03-23T01:58:12;99464.60;;;2.80
65290;BMP180;51893;59.754;10.110;2024-03-23T02:00:39;99463.60;;;2.80
65290;BMP180;51893;59.754;10.110;2024-03-23T02:03:25;99466.00;;;2.80
65290;BMP180;51893;59.754;10.110;2024-03-23T02:05:54;99468.40;;;2.80
65290;BMP180;51893;59.754;10.110;2024-03-23T02:08:23;99469.40;;;2.78
65290;BMP180;51893;59.754;10.110;2024-03-23T02:10:51;99466.00;;;2.80
65290;BMP180;51893;59.754;10.110;2024-03-23T02:13:19;99456.40;;;2.82
65290;BMP180;51893;59.754;10.110;2024-03-23T02:15:46;99450.60;;;2.90
65290;BMP180;51893;59.754;10.110;2024-03-23T02:18:13;99447.20;;;2.90
65290;BMP180;51893;59.754;10.110;2024-03-23T02:20:40;99444.20;;;2.90
65290;BMP180;51893;59.754;10.110;2024-03-23T02:23:14;99437.60;;;2.90
65290;BMP180;51893;59.754;10.110;2024-03-23T02:25:40;99438.20;;;2.90
65290;BMP180;51893;59.754;10.110;2024-03-23T02:28:08;99429.80;;;2.96
65290;BMP180;51893;59.754;10.110;2024-03-23T02:30:35;99428.00;;;3.00
65290;BMP180;51893;59.754;10.110;2024-03-23T02:33:01;99428.40;;;3.00
65290;BMP180;51893;59.754;10.110;2024-03-23T02:35:28;99422.00;;;3.00
65290;BMP180;51893;59.754;10.110;2024-03-23T02:37:55;99419.40;;;3.00
65290;BMP180;51893;59.754;10.110;2024-03-23T02:40:24;99419.60;;;3.02
65290;BMP180;51893;59.754;10.110;2024-03-23T02:42:52;99427.00;;;3.08
65290;BMP180;51893;59.754;10.110;2024-03-23T02:45:19;99435.00;;;3.00
65290;BMP180;51893;59.754;10.110;2024-03-23T02:47:47;99424.80;;;2.88
65290;BMP180;51893;59.754;10.110;2024-03-23T02:50:19;99427.40;;;2.86
65290;BMP180;51893;59.754;10.110;2024-03-23T02:52:47;99419.80;;;2.90
65290;BMP180;51893;59.754;10.110;2024-03-23T02:55:15;99415.20;;;2.90
65290;BMP180;51893;59.754;10.110;2024-03-23T02:57:42;99415.40;;;3.00
65290;BMP180;51893;59.754;10.110;2024-03-23T03:00:09;99410.60;;;3.00
65290;BMP180;51893;59.754;10.110;2024-03-23T03:02:37;99413.60;;;3.10
65290;BMP180;51893;59.754;10.110;2024-03-23T03:05:05;99406.20;;;3.10
65290;BMP180;51893;59.754;10.110;2024-03-23T03:07:33;99408.40;;;3.18
65290;BMP180;51893;59.754;10.110;2024-03-23T03:10:01;99406.00;;;3.20
65290;BMP180;51893;59.754;10.110;2024-03-23T03:12:28;99400.40;;;3.20
65290;BMP180;51893;59.754;10.110;2024-03-23T03:14:54;99403.40;;;3.20
65290;BMP180;51893;59.754;10.110;2024-03-23T03:17:21;99400.20;;;3.20
65290;BMP180;51893;59.754;10.110;2024-03-23T03:19:47;99398.20;;;3.14
65290;BMP180;51893;59.754;10.110;2024-03-23T03:22:14;99397.20;;;3.08
65290;BMP180;51893;59.754;10.110;2024-03-23T03:24:40;99393.20;;;3.00
65290;BMP180;51893;59.754;10.110;2024-03-23T03:27:07;99386.60;;;3.00
65290;BMP180;51893;59.754;10.110;2024-03-23T03:29:33;99385.20;;;3.00
65290;BMP180;51893;59.754;10.110;2024-03-23T03:32:03;99380.20;;;3.00
65290;BMP180;51893;59.754;10.110;2024-03-23T03:34:31;99374.00;;;3.00
65290;BMP180;51893;59.754;10.110;2024-03-23T03:36:58;99370.80;;;3.00
65290;BMP180;51893;59.754;10.110;2024-03-23T03:39:25;99362.60;;;3.00
65290;BMP180;51893;59.754;10.110;2024-03-23T03:41:55;99367.60;;;3.00
65290;BMP180;51893;59.754;10.110;2024-03-23T03:44:23;99364.40;;;3.00
65290;BMP180;51893;59.754;10.110;2024-03-23T03:46:49;99364.60;;;3.00
65290;BMP180;51893;59.754;10.110;2024-03-23T03:49:16;99360.40;;;3.00
65290;BMP180;51893;59.754;10.110;2024-03-23T03:51:48;99364.20;;;3.00
65290;BMP180;51893;59.754;10.110;2024-03-23T03:54:14;99367.00;;;3.00
65290;BMP180;51893;59.754;10.110;2024-03-23T03:56:41;99368.40;;;2.90
65290;BMP180;51893;59.754;10.110;2024-03-23T03:59:08;99362.00;;;2.90
65290;BMP180;51893;59.754;10.110;2024-03-23T04:01:34;99361.40;;;2.90
65290;BMP180;51893;59.754;10.110;2024-03-23T04:04:01;99361.20;;;2.90
65290;BMP180;51893;59.754;10.110;2024-03-23T04:06:28;99359.20;;;2.96
65290;BMP180;51893;59.754;10.110;2024-03-23T04:08:54;99352.20;;;2.92
65290;BMP180;51893;59.754;10.110;2024-03-23T04:11:21;99351.00;;;3.00
65290;BMP180;51893;59.754;10.110;2024-03-23T04:13:48;99347.40;;;2.90
65290;BMP180;51893;59.754;10.110;2024-03-23T04:16:33;99344.40;;;2.90
65290;BMP180;51893;59.754;10.110;2024-03-23T04:19:00;99347.20;;;2.90
65290;BMP180;51893;59.754;10.110;2024-03-23T04:21:26;99343.40;;;2.90
65290;BMP180;51893;59.754;10.110;2024-03-23T04:23:53;99342.20;;;2.88
65290;BMP180;51893;59.754;10.110;2024-03-23T04:26:19;99340.00;;;2.80
65290;BMP180;51893;59.754;10.110;2024-03-23T04:28:46;99341.80;;;2.80
65290;BMP180;51893;59.754;10.110;2024-03-23T04:31:13;99344.20;;;2.80
65290;BMP180;51893;59.754;10.110;2024-03-23T04:33:40;99339.20;;;2.80
65290;BMP180;51893;59.754;10.110;2024-03-23T04:36:07;99338.80;;;2.80
65290;BMP180;51893;59.754;10.110;2024-03-23T04:38:34;99335.80;;;2.86
65290;BMP180;51893;59.754;10.110;2024-03-23T04:41:01;99335.60;;;2.90
65290;BMP180;51893;59.754;10.110;2024-03-23T04:43:29;99332.20;;;2.90
65290;BMP180;51893;59.754;10.110;2024-03-23T04:45:56;99326.60;;;2.90
65290;BMP180;51893;59.754;10.110;2024-03-23T04:48:23;99325.00;;;2.90
65290;BMP180;51893;59.754;10.110;2024-03-23T04:50:55;99322.80;;;2.90
65290;BMP180;51893;59.754;10.110;2024-03-23T04:53:25;99321.60;;;3.00
65290;BMP180;51893;59.754;10.110;2024-03-23T04:55:58;99318.60;;;3.00
65290;BMP180;51893;59.754;10.110;2024-03-23T04:58:28;99316.80;;;3.10
65290;BMP180;51893;59.754;10.110;2024-03-23T05:00:57;99317.20;;;3.04
65290;BMP180;51893;59.754;10.110;2024-03-23T05:03:24;99309.60;;;3.00
65290;BMP180;51893;59.754;10.110;2024-03-23T05:05:52;99311.00;;;3.00
65290;BMP180;51893;59.754;10.110;2024-03-23T05:08:19;99313.60;;;3.10
65290;BMP180;51893;59.754;10.110;2024-03-23T05:10:48;99308.20;;;3.10
65290;BMP180;51893;59.754;10.110;2024-03-23T05:13:15;99309.20;;;3.10
65290;BMP180;51893;59.754;10.110;2024-03-23T05:15:42;99304.00;;;3.20
65290;BMP180;51893;59.754;10.110;2024-03-23T05:18:08;99304.00;;;3.20
65290;BMP180;51893;59.754;10.110;2024-03-23T05:20:35;99296.40;;;3.20
65290;BMP180;51893;59.754;10.110;2024-03-23T05:23:04;99298.80;;;3.20
65290;BMP180;51893;59.754;10.110;2024-03-23T05:25:31;99294.00;;;3.20
65290;BMP180;51893;59.754;10.110;2024-03-23T05:27:58;99290.00;;;3.20
65290;BMP180;51893;59.754;10.110;2024-03-23T05:30:25;99289.00;;;3.20
65290;BMP180;51893;59.754;10.110;2024-03-23T05:32:52;99289.00;;;3.20
65290;BMP180;51893;59.754;10.110;2024-03-23T05:35:18;99288.00;;;3.10
65290;BMP180;51893;59.754;10.110;2024-03-23T05:37:45;99284.40;;;3.00
65290;BMP180;51893;59.754;10.110;2024-03-23T05:40:11;99282.20;;;3.00
65290;BMP180;51893;59.754;10.110;2024-03-23T05:42:42;99286.00;;;3.00
65290;BMP180;51893;59.754;10.110;2024-03-23T05:45:09;99278.00;;;3.00
65290;BMP180;51893;59.754;10.110;2024-03-23T05:47:38;99277.80;;;3.00
65290;BMP180;51893;59.754;10.110;2024-03-23T05:50:05;99275.00;;;3.10
65290;BMP180;51893;59.754;10.110;2024-03-23T05:52:32;99274.60;;;3.10
65290;BMP180;51893;59.754;10.110;2024-03-23T05:54:58;99277.20;;;3.20
65290;BMP180;51893;59.754;10.110;2024-03-23T05:57:25;99277.00;;;3.20
65290;BMP180;51893;59.754;10.110;2024-03-23T05:59:52;99278.20;;;3.20
65290;BMP180;51893;59.754;10.110;2024-03-23T06:02:19;99275.00;;;3.22
65290;BMP180;51893;59.754;10.110;2024-03-23T06:04:46;99273.40;;;3.20
65290;BMP180;51893;59.754;10.110;2024-03-23T06:07:13;99273.20;;;3.30
65290;BMP180;51893;59.754;10.110;2024-03-23T06:09:41;99266.20;;;3.36
65290;BMP180;51893;59.754;10.110;2024-03-23T06:12:08;99265.80;;;3.42
65290;BMP180;51893;59.754;10.110;2024-03-23T06:14:35;99265.00;;;3.50
65290;BMP180;51893;59.754;10.110;2024-03-23T06:17:01;99268.60;;;3.52
65290;BMP180;51893;59.754;10.110;2024-03-23T06:19:29;99263.40;;;3.60
65290;BMP180;51893;59.754;10.110;2024-03-23T06:21:56;99254.40;;;3.50
65290;BMP180;51893;59.754;10.110;2024-03-23T06:24:23;99264.80;;;3.54
65290;BMP180;51893;59.754;10.110;2024-03-23T06:26:50;99262.80;;;3.54
65290;BMP180;51893;59.754;10.110;2024-03-23T06:29:18;99259.20;;;3.50
65290;BMP180;51893;59.754;10.110;2024-03-23T06:31:53;99258.80;;;3.50
65290;BMP180;51893;59.754;10.110;2024-03-23T06:34:21;99265.60;;;3.46
65290;BMP180;51893;59.754;10.110;2024-03-23T06:36:49;99271.80;;;3.50
65290;BMP180;51893;59.754;10.110;2024-03-23T06:39:16;99267.60;;;3.50
65290;BMP180;51893;59.754;10.110;2024-03-23T06:41:53;99270.60;;;3.50
65290;BMP180;51893;59.754;10.110;2024-03-23T06:44:21;99271.60;;;3.50
65290;BMP180;51893;59.754;10.110;2024-03-23T06:46:48;99264.00;;;3.50
65290;BMP180;51893;59.754;10.110;2024-03-23T06:49:18;99266.00;;;3.50
65290;BMP180;51893;59.754;10.110;2024-03-23T06:51:47;99265.20;;;3.60
65290;BMP180;51893;59.754;10.110;2024-03-23T06:54:17;99265.60;;;3.60
65290;BMP180;51893;59.754;10.110;2024-03-23T06:56:44;99259.20;;;3.60
65290;BMP180;51893;59.754;10.110;2024-03-23T06:59:11;99260.80;;;3.60
65290;BMP180;51893;59.754;10.110;2024-03-23T07:01:38;99259.40;;;3.60
65290;BMP180;51893;59.754;10.110;2024-03-23T07:04:04;99264.80;;;3.70
65290;BMP180;51893;59.754;10.110;2024-03-23T07:06:31;99266.00;;;3.70
65290;BMP180;51893;59.754;10.110;2024-03-23T07:08:58;99269.20;;;3.70
65290;BMP180;51893;59.754;10.110;2024-03-23T07:11:28;99268.60;;;3.74
65290;BMP180;51893;59.754;10.110;2024-03-23T07:13:55;99267.60;;;3.76
65290;BMP180;51893;59.754;10.110;2024-03-23T07:16:22;99270.20;;;3.80
65290;BMP180;51893;59.754;10.110;2024-03-23T07:18:50;99266.00;;;3.80
65290;BMP180;51893;59.754;10.110;2024-03-23T07:21:17;99264.40;;;3.90
65290;BMP180;51893;59.754;10.110;2024-03-23T07:23:46;99262.00;;;3.90
65290;BMP180;51893;59.754;10.110;2024-03-23T07:26:14;99264.00;;;4.00
65290;BMP180;51893;59.754;10.110;2024-03-23T07:28:41;99262.40;;;4.00
65290;BMP180;51893;59.754;10.110;2024-03-23T07:31:13;99265.00;;;4.00
65290;BMP180;51893;59.754;10.110;2024-03-23T07:33:48;99265.80;;;4.10
65290;BMP180;51893;59.754;10.110;2024-03-23T07:36:16;99259.80;;;4.02
65290;BMP180;51893;59.754;10.110;2024-03-23T07:38:44;99259.20;;;4.02
65290;BMP180;51893;59.754;10.110;2024-03-23T07:41:22;99262.40;;;4.10
65290;BMP180;51893;59.754;10.110;2024-03-23T07:43:48;99260.80;;;4.10
65290;BMP180;51893;59.754;10.110;2024-03-23T07:46:16;99259.00;;;4.10
65290;BMP180;51893;59.754;10.110;2024-03-23T07:48:43;99256.40;;;4.20
65290;BMP180;51893;59.754;10.110;2024-03-23T07:51:16;99258.00;;;4.22
65290;BMP180;51893;59.754;10.110;2024-03-23T07:53:44;99254.80;;;4.36
65290;BMP180;51893;59.754;10.110;2024-03-23T07:56:16;99253.40;;;4.48
65290;BMP180;51893;59.754;10.110;2024-03-23T07:58:47;99249.20;;;4.60
65290;BMP180;51893;59.754;10.110;2024-03-23T08:01:16;99249.20;;;4.70
65290;BMP180;51893;59.754;10.110;2024-03-23T08:03:49;99248.20;;;4.70
65290;BMP180;51893;59.754;10.110;2024-03-23T08:06:18;99247.20;;;4.80
65290;BMP180;51893;59.754;10.110;2024-03-23T08:08:51;99253.00;;;4.84
65290;BMP180;51893;59.754;10.110;2024-03-23T08:11:27;99251.40;;;4.90
65290;BMP180;51893;59.754;10.110;2024-03-23T08:13:56;99249.80;;;4.90
65290;BMP180;51893;59.754;10.110;2024-03-23T08:16:23;99247.20;;;5.00
65290;BMP180;51893;59.754;10.110;2024-03-23T08:18:51;99246.40;;;5.00
65290;BMP180;51893;59.754;10.110;2024-03-23T08:21:18;99248.20;;;5.10
65290;BMP180;51893;59.754;10.110;2024-03-23T08:23:45;99249.40;;;5.16
65290;BMP180;51893;59.754;10.110;2024-03-23T08:26:15;99247.60;;;5.22
65290;BMP180;51893;59.754;10.110;2024-03-23T08:28:42;99240.80;;;5.30
65290;BMP180;51893;59.754;10.110;2024-03-23T08:31:11;99243.60;;;5.40
65290;BMP180;51893;59.754;10.110;2024-03-23T08:33:39;99239.40;;;5.46
65290;BMP180;51893;59.754;10.110;2024-03-23T08:36:10;99242.40;;;5.50
65290;BMP180;51893;59.754;10.110;2024-03-23T08:38:41;99239.20;;;5.60
65290;BMP180;51893;59.754;10.110;2024-03-23T08:41:10;99237.40;;;5.70
65290;BMP180;51893;59.754;10.110;2024-03-23T08:43:40;99236.20;;;5.70
65290;BMP180;51893;59.754;10.110;2024-03-23T08:46:09;99240.60;;;5.80
65290;BMP180;51893;59.754;10.110;2024-03-23T08:48:42;99237.40;;;5.90
65290;BMP180;51893;59.754;10.110;2024-03-23T08:51:15;99238.80;;;6.00
65290;BMP180;51893;59.754;10.110;2024-03-23T08:53:43;99239.20;;;6.10
65290;BMP180;51893;59.754;10.110;2024-03-23T08:56:11;99237.40;;;6.10
65290;BMP180;51893;59.754;10.110;2024-03-23T08:58:39;99237.80;;;6.20
65290;BMP180;51893;59.754;10.110;2024-03-23T09:01:12;99237.80;;;6.20
65290;BMP180;51893;59.754;10.110;2024-03-23T09:03:42;99240.40;;;6.30
65290;BMP180;51893;59.754;10.110;2024-03-23T09:06:12;99241.40;;;6.30
65290;BMP180;51893;59.754;10.110;2024-03-23T09:08:41;99245.00;;;6.36
65290;BMP180;51893;59.754;10.110;2024-03-23T09:11:12;99243.20;;;6.40
65290;BMP180;51893;59.754;10.110;2024-03-23T09:13:40;99247.80;;;6.46
65290;BMP180;51893;59.754;10.110;2024-03-23T09:16:09;99248.80;;;6.50
65290;BMP180;51893;59.754;10.110;2024-03-23T09:18:37;99249.80;;;6.50
65290;BMP180;51893;59.754;10.110;2024-03-23T09:21:12;99249.00;;;6.54
65290;BMP180;51893;59.754;10.110;2024-03-23T09:23:43;99247.80;;;6.60
65290;BMP180;51893;59.754;10.110;2024-03-23T09:26:11;99251.00;;;6.60
65290;BMP180;51893;59.754;10.110;2024-03-23T09:28:38;99247.20;;;6.60
65290;BMP180;51893;59.754;10.110;2024-03-23T09:31:08;99251.60;;;6.66
65290;BMP180;51893;59.754;10.110;2024-03-23T09:33:35;99250.60;;;6.70
65290;BMP180;51893;59.754;10.110;2024-03-23T09:36:06;99253.00;;;6.70
65290;BMP180;51893;59.754;10.110;2024-03-23T09:38:34;99251.40;;;6.76
65290;BMP180;51893;59.754;10.110;2024-03-23T09:41:07;99245.00;;;6.80
65290;BMP180;51893;59.754;10.110;2024-03-23T09:43:35;99246.80;;;6.82
65290;BMP180;51893;59.754;10.110;2024-03-23T09:46:04;99243.40;;;6.90
65290;BMP180;51893;59.754;10.110;2024-03-23T09:48:34;99245.60;;;6.90
65290;BMP180;51893;59.754;10.110;2024-03-23T09:51:02;99247.40;;;7.00
65290;BMP180;51893;59.754;10.110;2024-03-23T09:53:31;99241.00;;;7.00
65290;BMP180;51893;59.754;10.110;2024-03-23T09:55:59;99244.20;;;7.10
65290;BMP180;51893;59.754;10.110;2024-03-23T09:58:26;99242.00;;;7.16
65290;BMP180;51893;59.754;10.110;2024-03-23T10:00:54;99242.60;;;7.22
65290;BMP180;51893;59.754;10.110;2024-03-23T10:03:21;99239.60;;;7.30
65290;BMP180;51893;59.754;10.110;2024-03-23T10:06:01;99244.00;;;7.40
65290;BMP180;51893;59.754;10.110;2024-03-23T10:08:29;99244.00;;;7.50
65290;BMP180;51893;59.754;10.110;2024-03-23T10:10:57;99244.40;;;7.58
65290;BMP180;51893;59.754;10.110;2024-03-23T10:13:27;99247.40;;;7.60
65290;BMP180;51893;59.754;10.110;2024-03-23T10:15:58;99247.20;;;7.70
65290;BMP180;51893;59.754;10.110;2024-03-23T10:18:28;99250.60;;;7.68
65290;BMP180;51893;59.754;10.110;2024-03-23T10:21:09;99251.00;;;7.70
65290;BMP180;51893;59.754;10.110;2024-03-23T10:23:44;99248.60;;;7.70
65290;BMP180;51893;59.754;10.110;2024-03-23T10:31:36;99249.00;;;7.80
65290;BMP180;51893;59.754;10.110;2024-03-23T10:34:03;99248.40;;;7.90
65290;BMP180;51893;59.754;10.110;2024-03-23T10:36:30;99247.80;;;7.90
65290;BMP180;51893;59.754;10.110;2024-03-23T10:39:00;99238.80;;;7.96
65290;BMP180;51893;59.754;10.110;2024-03-23T10:41:28;99237.40;;;8.00
65290;BMP180;51893;59.754;10.110;2024-03-23T10:43:57;99236.80;;;8.10
65290;BMP180;51893;59.754;10.110;2024-03-23T10:46:25;99239.00;;;8.10
65290;BMP180;51893;59.754;10.110;2024-03-23T10:48:54;99241.40;;;8.20
65290;BMP180;51893;59.754;10.110;2024-03-23T10:51:21;99240.40;;;8.20
65290;BMP180;51893;59.754;10.110;2024-03-23T10:53:48;99237.60;;;8.30
65290;BMP180;51893;59.754;10.110;2024-03-23T10:56:17;99238.20;;;8.30
65290;BMP180;51893;59.754;10.110;2024-03-23T10:58:48;99237.60;;;8.40
65290;BMP180;51893;59.754;10.110;2024-03-23T11:01:15;99233.00;;;8.40
65290;BMP180;51893;59.754;10.110;2024-03-23T11:03:46;99230.40;;;8.40
65290;BMP180;51893;59.754;10.110;2024-03-23T11:06:37;99228.80;;;8.42
65290;BMP180;51893;59.754;10.110;2024-03-23T11:15:01;99234.40;;;8.60
65290;BMP180;51893;59.754;10.110;2024-03-23T11:17:28;99233.60;;;8.60
65290;BMP180;51893;59.754;10.110;2024-03-23T11:20:03;99237.00;;;8.70
65290;BMP180;51893;59.754;10.110;2024-03-23T11:22:50;99239.60;;;8.74
65290;BMP180;51893;59.754;10.110;2024-03-23T11:25:24;99238.60;;;8.80
65290;BMP180;51893;59.754;10.110;2024-03-23T11:28:11;99236.20;;;8.90
65290;BMP180;51893;59.754;10.110;2024-03-23T11:30:43;99237.60;;;8.92
65290;BMP180;51893;59.754;10.110;2024-03-23T11:33:13;99235.60;;;9.00
65290;BMP180;51893;59.754;10.110;2024-03-23T11:35:42;99237.20;;;9.10
65290;BMP180;51893;59.754;10.110;2024-03-23T11:38:17;99238.20;;;9.10
65290;BMP180;51893;59.754;10.110;2024-03-23T11:40:48;99239.40;;;9.20
65290;BMP180;51893;59.754;10.110;2024-03-23T11:43:19;99236.80;;;9.22
65290;BMP180;51893;59.754;10.110;2024-03-23T11:45:51;99244.40;;;9.30
65290;BMP180;51893;59.754;10.110;2024-03-23T11:48:23;99241.60;;;9.32
65290;BMP180;51893;59.754;10.110;2024-03-23T11:50:55;99245.60;;;9.40
65290;BMP180;51893;59.754;10.110;2024-03-23T11:53:24;99249.80;;;9.40
65290;BMP180;51893;59.754;10.110;2024-03-23T11:55:58;99249.20;;;9.40
65290;BMP180;51893;59.754;10.110;2024-03-23T11:58:29;99257.00;;;9.34
65290;BMP180;51893;59.754;10.110;2024-03-23T12:01:01;99254.80;;;9.40
65290;BMP180;51893;59.754;10.110;2024-03-23T12:03:32;99256.20;;;9.40
65290;BMP180;51893;59.754;10.110;2024-03-23T12:06:03;99255.20;;;9.30
65290;BMP180;51893;59.754;10.110;2024-03-23T12:08:35;99257.40;;;9.30
65290;BMP180;51893;59.754;10.110;2024-03-23T12:11:17;99261.40;;;9.30
65290;BMP180;51893;59.754;10.110;2024-03-23T12:13:46;99257.40;;;9.30
65290;BMP180;51893;59.754;10.110;2024-03-23T12:16:24;99258.40;;;9.30
65290;BMP180;51893;59.754;10.110;2024-03-23T12:19:05;99251.20;;;9.40
65290;BMP180;51893;59.754;10.110;2024-03-23T12:21:32;99252.60;;;9.44
65290;BMP180;51893;59.754;10.110;2024-03-23T12:24:00;99251.40;;;9.50
65290;BMP180;51893;59.754;10.110;2024-03-23T12:26:30;99251.00;;;9.50
65290;BMP180;51893;59.754;10.110;2024-03-23T12:28:56;99254.20;;;9.50
65290;BMP180;51893;59.754;10.110;2024-03-23T12:31:23;99251.80;;;9.50
65290;BMP180;51893;59.754;10.110;2024-03-23T12:33:52;99248.60;;;9.54
65290;BMP180;51893;59.754;10.110;2024-03-23T12:36:18;99249.40;;;9.60
65290;BMP180;51893;59.754;10.110;2024-03-23T12:38:46;99257.00;;;9.54
65290;BMP180;51893;59.754;10.110;2024-03-23T12:41:13;99257.20;;;9.50
65290;BMP180;51893;59.754;10.110;2024-03-23T12:43:40;99255.00;;;9.50
65290;BMP180;51893;59.754;10.110;2024-03-23T12:46:09;99250.60;;;9.50
65290;BMP180;51893;59.754;10.110;2024-03-23T12:48:37;99256.80;;;9.40
65290;BMP180;51893;59.754;10.110;2024-03-23T12:51:05;99254.40;;;9.40
65290;BMP180;51893;59.754;10.110;2024-03-23T12:53:31;99253.80;;;9.40
65290;BMP180;51893;59.754;10.110;2024-03-23T12:55:59;99255.40;;;9.40
65290;BMP180;51893;59.754;10.110;2024-03-23T12:58:26;99253.60;;;9.38
65290;BMP180;51893;59.754;10.110;2024-03-23T13:00:53;99249.00;;;9.34
65290;BMP180;51893;59.754;10.110;2024-03-23T13:03:20;99251.40;;;9.34
65290;BMP180;51893;59.754;10.110;2024-03-23T13:05:53;99249.80;;;9.40
65290;BMP180;51893;59.754;10.110;2024-03-23T13:08:20;99250.60;;;9.40
65290;BMP180;51893;59.754;10.110;2024-03-23T13:10:53;99247.60;;;9.50
65290;BMP180;51893;59.754;10.110;2024-03-23T13:13:24;99244.40;;;9.50
65290;BMP180;51893;59.754;10.110;2024-03-23T13:15:51;99244.60;;;9.50
65290;BMP180;51893;59.754;10.110;2024-03-23T13:18:18;99248.60;;;9.50
65290;BMP180;51893;59.754;10.110;2024-03-23T13:20:45;99247.20;;;9.50
65290;BMP180;51893;59.754;10.110;2024-03-23T13:23:15;99245.00;;;9.50
65290;BMP180;51893;59.754;10.110;2024-03-23T13:25:53;99246.00;;;9.44
65290;BMP180;51893;59.754;10.110;2024-03-23T13:28:21;99248.20;;;9.40
65290;BMP180;51893;59.754;10.110;2024-03-23T13:30:56;99246.00;;;9.40
65290;BMP180;51893;59.754;10.110;2024-03-23T13:33:24;99243.20;;;9.30
65290;BMP180;51893;59.754;10.110;2024-03-23T13:35:52;99242.80;;;9.30
65290;BMP180;51893;59.754;10.110;2024-03-23T13:38:22;99244.40;;;9.30
65290;BMP180;51893;59.754;10.110;2024-03-23T13:40:55;99250.00;;;9.30
65290;BMP180;51893;59.754;10.110;2024-03-23T13:43:27;99248.80;;;9.30
65290;BMP180;51893;59.754;10.110;2024-03-23T13:45:57;99253.80;;;9.30
65290;BMP180;51893;59.754;10.110;2024-03-23T13:48:26;99251.00;;;9.30
65290;BMP180;51893;59.754;10.110;2024-03-23T13:53:28;99252.40;;;9.30
65290;BMP180;51893;59.754;10.110;2024-03-23T13:55:56;99248.80;;;9.30
65290;BMP180;51893;59.754;10.110;2024-03-23T13:58:24;99245.20;;;9.30
65290;BMP180;51893;59.754;10.110;2024-03-23T14:00:58;99243.40;;;9.30
65290;BMP180;51893;59.754;10.110;2024-03-23T14:03:25;99244.40;;;9.30
65290;BMP180;51893;59.754;10.110;2024-03-23T14:05:53;99245.20;;;9.30
65290;BMP180;51893;59.754;10.110;2024-03-23T14:08:20;99244.40;;;9.30
65290;BMP180;51893;59.754;10.110;2024-03-23T14:10:48;99242.80;;;9.30
65290;BMP180;51893;59.754;10.110;2024-03-23T14:13:15;99244.20;;;9.20
65290;BMP180;51893;59.754;10.110;2024-03-23T14:15:41;99238.80;;;9.20
65290;BMP180;51893;59.754;10.110;2024-03-23T14:18:11;99239.60;;;9.20
65290;BMP180;51893;59.754;10.110;2024-03-23T14:20:39;99231.60;;;9.20
65290;BMP180;51893;59.754;10.110;2024-03-23T14:23:08;99234.20;;;9.14
65290;BMP180;51893;59.754;10.110;2024-03-23T14:25:34;99237.20;;;9.10
65290;BMP180;51893;59.754;10.110;2024-03-23T14:28:01;99236.00;;;9.10
65290;BMP180;51893;59.754;10.110;2024-03-23T14:30:27;99231.20;;;9.10
65290;BMP180;51893;59.754;10.110;2024-03-23T14:32:54;99232.20;;;9.04
65290;BMP180;51893;59.754;10.110;2024-03-23T14:35:23;99229.20;;;9.00
65290;BMP180;51893;59.754;10.110;2024-03-23T14:37:50;99229.20;;;9.00
65290;BMP180;51893;59.754;10.110;2024-03-23T14:40:17;99228.00;;;9.00
65290;BMP180;51893;59.754;10.110;2024-03-23T14:42:44;99229.20;;;8.90
65290;BMP180;51893;59.754;10.110;2024-03-23T14:45:11;99229.20;;;8.90
65290;BMP180;51893;59.754;10.110;2024-03-23T14:47:39;99232.80;;;8.90
65290;BMP180;51893;59.754;10.110;2024-03-23T14:50:06;99229.20;;;8.90
65290;BMP180;51893;59.754;10.110;2024-03-23T14:52:35;99231.60;;;8.90
65290;BMP180;51893;59.754;10.110;2024-03-23T14:55:01;99230.40;;;8.90
65290;BMP180;51893;59.754;10.110;2024-03-23T14:57:29;99229.20;;;8.90
65290;BMP180;51893;59.754;10.110;2024-03-23T14:59:56;99229.80;;;8.96
65290;BMP180;51893;59.754;10.110;2024-03-23T15:02:23;99231.40;;;9.00
65290;BMP180;51893;59.754;10.110;2024-03-23T15:04:50;99231.40;;;9.00
65290;BMP180;51893;59.754;10.110;2024-03-23T15:07:18;99231.40;;;9.00
65290;BMP180;51893;59.754;10.110;2024-03-23T15:09:47;99228.80;;;9.10
65290;BMP180;51893;59.754;10.110;2024-03-23T15:12:15;99233.00;;;9.20
65290;BMP180;51893;59.754;10.110;2024-03-23T15:14:43;99237.60;;;9.30
65290;BMP180;51893;59.754;10.110;2024-03-23T15:17:16;99235.20;;;9.30
65290;BMP180;51893;59.754;10.110;2024-03-23T15:19:43;99232.40;;;9.30
65290;BMP180;51893;59.754;10.110;2024-03-23T15:22:09;99230.00;;;9.30
65290;BMP180;51893;59.754;10.110;2024-03-23T15:24:37;99232.80;;;9.30